sensor_id;sensor_type;location;lat;lon;timestamp;P1;durP1;ratioP1;P2;durP2;ratioP2
40953;SDS011;26686;50.130;8.710;2023-11-21T00:01:05;3.45;;;1.70;;
40953;SDS011;26686;50.130;8.710;2023-11-21T00:06:10;3.30;;;1.85;;
40953;SDS011;26686;50.130;8.710;2023-11-21T00:11:12;4.78;;;1.80;;
40953;SDS011;26686;50.130;8.710;2023-11-21T00:16:13;3.55;;;1.65;;
40953;SDS011;26686;50.130;8.710;2023-11-21T00:21:15;5.07;;;1.48;;
40953;SDS011;26686;50.130;8.710;2023-11-21T00:26:18;3.30;;;1.30;;
40953;SDS011;26686;50.130;8.710;2023-11-21T00:31:19;2.90;;;1.20;;
40953;SDS011;26686;50.130;8.710;2023-11-21T00:36:21;4.28;;;1.52;;
40953;SDS011;26686;50.130;8.710;2023-11-21T00:41:22;3.10;;;1.60;;
40953;SDS011;26686;50.130;8.710;2023-11-21T00:46:24;3.47;;;1.23;;
40953;SDS011;26686;50.130;8.710;2023-11-21T00:51:28;3.90;;;1.85;;
40953;SDS011;26686;50.130;8.710;2023-11-21T00:56:29;3.10;;;1.40;;
40953;SDS011;26686;50.130;8.710;2023-11-21T01:01:30;3.03;;;1.48;;
40953;SDS011;26686;50.130;8.710;2023-11-21T01:06:32;3.00;;;1.17;;
40953;SDS011;26686;50.130;8.710;2023-11-21T01:11:34;5.65;;;1.90;;
40953;SDS011;26686;50.130;8.710;2023-11-21T01:21:40;2.17;;;1.38;;
40953;SDS011;26686;50.130;8.710;2023-11-21T01:26:42;3.50;;;2.03;;
40953;SDS011;26686;50.130;8.710;2023-11-21T01:31:44;3.63;;;2.25;;
40953;SDS011;26686;50.130;8.710;2023-11-21T01:36:46;3.13;;;1.70;;
40953;SDS011;26686;50.130;8.710;2023-11-21T01:41:48;3.75;;;1.70;;
40953;SDS011;26686;50.130;8.710;2023-11-21T01:46:49;4.22;;;2.08;;
40953;SDS011;26686;50.130;8.710;2023-11-21T01:51:52;2.90;;;1.60;;
40953;SDS011;26686;50.130;8.710;2023-11-21T01:56:53;4.28;;;2.00;;
40953;SDS011;26686;50.130;8.710;2023-11-21T02:01:55;3.78;;;1.70;;
40953;SDS011;26686;50.130;8.710;2023-11-21T02:06:57;2.85;;;2.30;;
40953;SDS011;26686;50.130;8.710;2023-11-21T02:11:58;4.70;;;2.63;;
40953;SDS011;26686;50.130;8.710;2023-11-21T02:17:00;3.13;;;1.80;;
40953;SDS011;26686;50.130;8.710;2023-11-21T02:22:02;3.00;;;1.92;;
40953;SDS011;26686;50.130;8.710;2023-11-21T02:27:06;1.90;;;1.47;;
40953;SDS011;26686;50.130;8.710;2023-11-21T02:32:07;1.45;;;1.35;;
40953;SDS011;26686;50.130;8.710;2023-11-21T02:42:13;2.28;;;1.30;;
40953;SDS011;26686;50.130;8.710;2023-11-21T02:47:14;2.63;;;1.38;;
40953;SDS011;26686;50.130;8.710;2023-11-21T02:52:16;1.92;;;1.55;;
40953;SDS011;26686;50.130;8.710;2023-11-21T02:57:17;2.30;;;1.33;;
40953;SDS011;26686;50.130;8.710;2023-11-21T03:02:20;1.40;;;1.10;;
40953;SDS011;26686;50.130;8.710;2023-11-21T03:07:21;1.55;;;1.08;;
40953;SDS011;26686;50.130;8.710;2023-11-21T03:12:23;1.98;;;1.33;;
40953;SDS011;26686;50.130;8.710;2023-11-21T03:17:24;1.58;;;0.98;;
40953;SDS011;26686;50.130;8.710;2023-11-21T03:22:26;1.60;;;0.75;;
40953;SDS011;26686;50.130;8.710;2023-11-21T03:27:28;1.98;;;1.10;;
40953;SDS011;26686;50.130;8.710;2023-11-21T03:32:29;2.38;;;1.67;;
40953;SDS011;26686;50.130;8.710;2023-11-21T03:37:34;2.22;;;2.03;;
40953;SDS011;26686;50.130;8.710;2023-11-21T03:42:36;2.58;;;1.92;;
40953;SDS011;26686;50.130;8.710;2023-11-21T03:47:38;4.28;;;2.00;;
40953;SDS011;26686;50.130;8.710;2023-11-21T03:52:40;4.38;;;2.60;;
40953;SDS011;26686;50.130;8.710;2023-11-21T03:57:44;4.40;;;2.10;;
40953;SDS011;26686;50.130;8.710;2023-11-21T04:02:45;2.35;;;2.00;;
40953;SDS011;26686;50.130;8.710;2023-11-21T04:07:47;3.05;;;1.52;;
40953;SDS011;26686;50.130;8.710;2023-11-21T04:12:50;2.97;;;1.35;;
40953;SDS011;26686;50.130;8.710;2023-11-21T04:17:51;2.67;;;1.23;;
40953;SDS011;26686;50.130;8.710;2023-11-21T04:22:53;2.25;;;1.20;;
40953;SDS011;26686;50.130;8.710;2023-11-21T04:27:55;1.98;;;1.50;;
40953;SDS011;26686;50.130;8.710;2023-11-21T04:32:57;2.25;;;1.00;;
40953;SDS011;26686;50.130;8.710;2023-11-21T04:37:58;3.08;;;1.60;;
40953;SDS011;26686;50.130;8.710;2023-11-21T04:43:00;2.70;;;1.85;;
40953;SDS011;26686;50.130;8.710;2023-11-21T04:48:01;2.10;;;1.70;;
40953;SDS011;26686;50.130;8.710;2023-11-21T04:53:03;2.33;;;1.85;;
40953;SDS011;26686;50.130;8.710;2023-11-21T04:58:04;3.15;;;2.58;;
40953;SDS011;26686;50.130;8.710;2023-11-21T05:03:06;2.90;;;2.70;;
40953;SDS011;26686;50.130;8.710;2023-11-21T05:08:08;2.92;;;2.67;;
40953;SDS011;26686;50.130;8.710;2023-11-21T05:13:10;4.30;;;2.80;;
40953;SDS011;26686;50.130;8.710;2023-11-21T05:18:11;3.40;;;2.95;;
40953;SDS011;26686;50.130;8.710;2023-11-21T05:23:17;5.38;;;4.20;;
40953;SDS011;26686;50.130;8.710;2023-11-21T05:28:19;6.03;;;5.00;;
40953;SDS011;26686;50.130;8.710;2023-11-21T05:33:21;7.05;;;6.35;;
40953;SDS011;26686;50.130;8.710;2023-11-21T05:38:22;8.50;;;6.13;;
40953;SDS011;26686;50.130;8.710;2023-11-21T05:43:24;12.00;;;7.60;;
40953;SDS011;26686;50.130;8.710;2023-11-21T05:48:26;9.68;;;7.75;;
40953;SDS011;26686;50.130;8.710;2023-11-21T05:53:28;9.63;;;7.82;;
40953;SDS011;26686;50.130;8.710;2023-11-21T05:58:29;8.10;;;6.95;;
40953;SDS011;26686;50.130;8.710;2023-11-21T06:03:31;10.73;;;8.40;;
40953;SDS011;26686;50.130;8.710;2023-11-21T06:08:33;10.25;;;8.90;;
40953;SDS011;26686;50.130;8.710;2023-11-21T06:13:34;11.57;;;9.05;;
40953;SDS011;26686;50.130;8.710;2023-11-21T06:18:36;8.57;;;7.50;;
40953;SDS011;26686;50.130;8.710;2023-11-21T06:23:37;12.73;;;8.75;;
40953;SDS011;26686;50.130;8.710;2023-11-21T06:28:39;12.38;;;8.85;;
40953;SDS011;26686;50.130;8.710;2023-11-21T06:33:42;10.00;;;7.93;;
40953;SDS011;26686;50.130;8.710;2023-11-21T06:38:44;8.82;;;6.15;;
40953;SDS011;26686;50.130;8.710;2023-11-21T06:43:48;4.28;;;3.80;;
40953;SDS011;26686;50.130;8.710;2023-11-21T06:48:51;5.43;;;3.60;;
40953;SDS011;26686;50.130;8.710;2023-11-21T06:53:52;4.30;;;3.03;;
40953;SDS011;26686;50.130;8.710;2023-11-21T06:58:53;4.40;;;4.00;;
40953;SDS011;26686;50.130;8.710;2023-11-21T07:03:55;5.88;;;4.63;;
40953;SDS011;26686;50.130;8.710;2023-11-21T07:08:57;5.80;;;5.20;;
40953;SDS011;26686;50.130;8.710;2023-11-21T07:13:59;5.93;;;5.32;;
40953;SDS011;26686;50.130;8.710;2023-11-21T07:19:04;6.75;;;5.50;;
40953;SDS011;26686;50.130;8.710;2023-11-21T07:24:09;6.72;;;5.57;;
40953;SDS011;26686;50.130;8.710;2023-11-21T07:29:12;5.93;;;5.25;;
40953;SDS011;26686;50.130;8.710;2023-11-21T07:34:14;6.03;;;4.72;;
40953;SDS011;26686;50.130;8.710;2023-11-21T07:39:16;5.85;;;4.70;;
40953;SDS011;26686;50.130;8.710;2023-11-21T07:44:17;5.88;;;4.95;;
40953;SDS011;26686;50.130;8.710;2023-11-21T07:49:19;9.43;;;6.15;;
40953;SDS011;26686;50.130;8.710;2023-11-21T07:54:22;6.75;;;5.82;;
40953;SDS011;26686;50.130;8.710;2023-11-21T07:59:23;6.93;;;5.18;;
40953;SDS011;26686;50.130;8.710;2023-11-21T08:04:26;5.95;;;5.35;;
40953;SDS011;26686;50.130;8.710;2023-11-21T08:09:29;7.38;;;5.63;;
40953;SDS011;26686;50.130;8.710;2023-11-21T08:14:31;9.07;;;5.93;;
40953;SDS011;26686;50.130;8.710;2023-11-21T08:19:32;6.72;;;5.53;;
40953;SDS011;26686;50.130;8.710;2023-11-21T08:24:34;7.90;;;5.97;;
40953;SDS011;26686;50.130;8.710;2023-11-21T08:29:35;6.70;;;6.00;;
40953;SDS011;26686;50.130;8.710;2023-11-21T08:34:37;8.00;;;6.47;;
40953;SDS011;26686;50.130;8.710;2023-11-21T08:39:41;8.83;;;6.57;;
40953;SDS011;26686;50.130;8.710;2023-11-21T08:44:43;7.30;;;6.20;;
40953;SDS011;26686;50.130;8.710;2023-11-21T08:49:47;8.53;;;5.87;;
40953;SDS011;26686;50.130;8.710;2023-11-21T08:54:50;8.63;;;5.20;;
40953;SDS011;26686;50.130;8.710;2023-11-21T08:59:57;9.10;;;6.45;;
40953;SDS011;26686;50.130;8.710;2023-11-21T09:04:58;7.97;;;5.63;;
40953;SDS011;26686;50.130;8.710;2023-11-21T09:10:00;6.15;;;5.55;;
40953;SDS011;26686;50.130;8.710;2023-11-21T09:15:04;7.25;;;4.95;;
40953;SDS011;26686;50.130;8.710;2023-11-21T09:20:07;6.13;;;4.78;;
40953;SDS011;26686;50.130;8.710;2023-11-21T09:25:11;6.75;;;5.30;;
40953;SDS011;26686;50.130;8.710;2023-11-21T09:30:15;6.32;;;4.40;;
40953;SDS011;26686;50.130;8.710;2023-11-21T09:35:16;7.75;;;5.15;;
40953;SDS011;26686;50.130;8.710;2023-11-21T09:40:20;6.95;;;4.80;;
40953;SDS011;26686;50.130;8.710;2023-11-21T09:45:36;5.82;;;5.20;;
40953;SDS011;26686;50.130;8.710;2023-11-21T09:50:41;6.63;;;5.13;;
40953;SDS011;26686;50.130;8.710;2023-11-21T09:55:44;8.55;;;5.65;;
40953;SDS011;26686;50.130;8.710;2023-11-21T10:00:48;6.10;;;5.38;;
40953;SDS011;26686;50.130;8.710;2023-11-21T10:05:53;7.43;;;4.55;;
40953;SDS011;26686;50.130;8.710;2023-11-21T10:10:57;6.18;;;4.15;;
40953;SDS011;26686;50.130;8.710;2023-11-21T10:16:00;6.72;;;4.85;;
40953;SDS011;26686;50.130;8.710;2023-11-21T10:21:07;5.78;;;3.97;;
40953;SDS011;26686;50.130;8.710;2023-11-21T10:26:11;7.20;;;3.93;;
40953;SDS011;26686;50.130;8.710;2023-11-21T10:31:31;5.90;;;3.75;;
40953;SDS011;26686;50.130;8.710;2023-11-21T10:36:33;6.22;;;3.70;;
40953;SDS011;26686;50.130;8.710;2023-11-21T10:41:35;5.03;;;3.47;;
40953;SDS011;26686;50.130;8.710;2023-11-21T10:46:36;5.47;;;3.72;;
40953;SDS011;26686;50.130;8.710;2023-11-21T10:51:40;5.93;;;3.67;;
40953;SDS011;26686;50.130;8.710;2023-11-21T10:56:45;5.43;;;3.45;;
40953;SDS011;26686;50.130;8.710;2023-11-21T11:01:47;9.73;;;4.70;;
40953;SDS011;26686;50.130;8.710;2023-11-21T11:06:54;4.85;;;3.67;;
40953;SDS011;26686;50.130;8.710;2023-11-21T11:11:58;7.25;;;4.00;;
40953;SDS011;26686;50.130;8.710;2023-11-21T11:17:00;5.00;;;3.70;;
40953;SDS011;26686;50.130;8.710;2023-11-21T11:33:02;5.75;;;4.28;;
40953;SDS011;26686;50.130;8.710;2023-11-21T11:38:10;7.47;;;4.43;;
40953;SDS011;26686;50.130;8.710;2023-11-21T11:43:14;5.57;;;5.07;;
40953;SDS011;26686;50.130;8.710;2023-11-21T11:48:29;5.80;;;4.97;;
40953;SDS011;26686;50.130;8.710;2023-11-21T11:53:37;7.88;;;4.88;;
40953;SDS011;26686;50.130;8.710;2023-11-21T11:58:41;5.88;;;4.10;;
40953;SDS011;26686;50.130;8.710;2023-11-21T12:03:43;5.97;;;4.85;;
40953;SDS011;26686;50.130;8.710;2023-11-21T12:08:44;7.50;;;4.88;;
40953;SDS011;26686;50.130;8.710;2023-11-21T12:13:46;7.60;;;4.53;;
40953;SDS011;26686;50.130;8.710;2023-11-21T12:18:48;7.47;;;4.88;;
40953;SDS011;26686;50.130;8.710;2023-11-21T12:23:50;5.85;;;4.40;;
40953;SDS011;26686;50.130;8.710;2023-11-21T12:28:52;4.22;;;3.83;;
40953;SDS011;26686;50.130;8.710;2023-11-21T12:33:58;6.30;;;3.95;;
40953;SDS011;26686;50.130;8.710;2023-11-21T12:38:59;4.45;;;3.60;;
40953;SDS011;26686;50.130;8.710;2023-11-21T12:44:01;3.92;;;3.30;;
40953;SDS011;26686;50.130;8.710;2023-11-21T12:49:03;4.20;;;3.80;;
40953;SDS011;26686;50.130;8.710;2023-11-21T12:54:04;4.63;;;3.85;;
40953;SDS011;26686;50.130;8.710;2023-11-21T12:59:08;6.43;;;4.23;;
40953;SDS011;26686;50.130;8.710;2023-11-21T13:04:16;5.40;;;3.53;;
40953;SDS011;26686;50.130;8.710;2023-11-21T13:09:22;5.03;;;3.97;;
40953;SDS011;26686;50.130;8.710;2023-11-21T13:14:28;6.38;;;3.67;;
40953;SDS011;26686;50.130;8.710;2023-11-21T13:19:31;6.07;;;3.80;;
40953;SDS011;26686;50.130;8.710;2023-11-21T13:24:32;3.97;;;3.30;;
40953;SDS011;26686;50.130;8.710;2023-11-21T13:29:34;5.35;;;3.03;;
40953;SDS011;26686;50.130;8.710;2023-11-21T13:34:36;4.65;;;3.00;;
40953;SDS011;26686;50.130;8.710;2023-11-21T13:39:38;6.72;;;3.50;;
40953;SDS011;26686;50.130;8.710;2023-11-21T13:44:45;4.25;;;3.20;;
40953;SDS011;26686;50.130;8.710;2023-11-21T13:49:49;4.10;;;3.33;;
40953;SDS011;26686;50.130;8.710;2023-11-21T13:54:51;4.40;;;3.65;;
40953;SDS011;26686;50.130;8.710;2023-11-21T13:59:52;4.35;;;3.60;;
40953;SDS011;26686;50.130;8.710;2023-11-21T14:04:53;7.10;;;3.80;;
40953;SDS011;26686;50.130;8.710;2023-11-21T14:10:02;4.03;;;2.80;;
40953;SDS011;26686;50.130;8.710;2023-11-21T14:15:05;7.13;;;3.63;;
40953;SDS011;26686;50.130;8.710;2023-11-21T14:20:11;5.90;;;3.55;;
40953;SDS011;26686;50.130;8.710;2023-11-21T14:25:20;6.03;;;3.75;;
40953;SDS011;26686;50.130;8.710;2023-11-21T14:30:23;6.97;;;4.07;;
40953;SDS011;26686;50.130;8.710;2023-11-21T14:35:26;6.13;;;3.63;;
40953;SDS011;26686;50.130;8.710;2023-11-21T14:40:28;5.05;;;4.13;;
40953;SDS011;26686;50.130;8.710;2023-11-21T14:45:34;7.78;;;4.78;;
40953;SDS011;26686;50.130;8.710;2023-11-21T14:50:36;8.80;;;5.35;;
40953;SDS011;26686;50.130;8.710;2023-11-21T14:55:51;7.50;;;4.68;;
40953;SDS011;26686;50.130;8.710;2023-11-21T15:00:53;8.73;;;5.47;;
40953;SDS011;26686;50.130;8.710;2023-11-21T15:05:59;7.75;;;4.82;;
40953;SDS011;26686;50.130;8.710;2023-11-21T15:11:19;6.53;;;4.88;;
40953;SDS011;26686;50.130;8.710;2023-11-21T15:16:25;8.52;;;5.60;;
40953;SDS011;26686;50.130;8.710;2023-11-21T15:21:29;9.25;;;5.40;;
40953;SDS011;26686;50.130;8.710;2023-11-21T15:26:30;7.53;;;5.10;;
40953;SDS011;26686;50.130;8.710;2023-11-21T15:31:32;8.43;;;4.97;;
40953;SDS011;26686;50.130;8.710;2023-11-21T15:36:34;9.30;;;5.70;;
40953;SDS011;26686;50.130;8.710;2023-11-21T15:41:39;7.22;;;5.25;;
40953;SDS011;26686;50.130;8.710;2023-11-21T15:46:41;6.88;;;5.22;;
40953;SDS011;26686;50.130;8.710;2023-11-21T15:51:43;6.43;;;5.78;;
40953;SDS011;26686;50.130;8.710;2023-11-21T15:57:05;8.32;;;5.60;;
40953;SDS011;26686;50.130;8.710;2023-11-21T16:02:11;5.97;;;4.60;;
40953;SDS011;26686;50.130;8.710;2023-11-21T16:07:14;8.35;;;5.65;;
40953;SDS011;26686;50.130;8.710;2023-11-21T16:12:15;6.38;;;4.93;;
40953;SDS011;26686;50.130;8.710;2023-11-21T16:17:17;7.47;;;5.20;;
40953;SDS011;26686;50.130;8.710;2023-11-21T16:22:19;7.20;;;4.40;;
40953;SDS011;26686;50.130;8.710;2023-11-21T16:27:21;8.18;;;5.95;;
40953;SDS011;26686;50.130;8.710;2023-11-21T16:32:22;6.43;;;4.60;;
40953;SDS011;26686;50.130;8.710;2023-11-21T16:37:24;6.35;;;3.85;;
40953;SDS011;26686;50.130;8.710;2023-11-21T16:42:29;6.55;;;5.22;;
40953;SDS011;26686;50.130;8.710;2023-11-21T16:47:34;5.95;;;5.35;;
40953;SDS011;26686;50.130;8.710;2023-11-21T16:52:36;7.88;;;5.38;;
40953;SDS011;26686;50.130;8.710;2023-11-21T16:57:41;9.05;;;8.15;;
40953;SDS011;26686;50.130;8.710;2023-11-21T17:02:43;30.88;;;18.40;;
40953;SDS011;26686;50.130;8.710;2023-11-21T17:07:45;9.68;;;6.53;;
40953;SDS011;26686;50.130;8.710;2023-11-21T17:12:47;5.15;;;4.22;;
40953;SDS011;26686;50.130;8.710;2023-11-21T17:17:50;8.98;;;6.13;;
40953;SDS011;26686;50.130;8.710;2023-11-21T17:22:56;7.25;;;5.20;;
40953;SDS011;26686;50.130;8.710;2023-11-21T17:27:58;15.68;;;9.00;;
40953;SDS011;26686;50.130;8.710;2023-11-21T17:33:02;9.60;;;5.80;;
40953;SDS011;26686;50.130;8.710;2023-11-21T17:38:03;6.15;;;5.22;;
40953;SDS011;26686;50.130;8.710;2023-11-21T17:43:05;7.18;;;5.78;;
40953;SDS011;26686;50.130;8.710;2023-11-21T17:48:09;8.35;;;6.10;;
40953;SDS011;26686;50.130;8.710;2023-11-21T17:53:12;6.93;;;5.40;;
40953;SDS011;26686;50.130;8.710;2023-11-21T17:58:14;7.28;;;5.35;;
40953;SDS011;26686;50.130;8.710;2023-11-21T18:03:17;5.97;;;4.93;;
40953;SDS011;26686;50.130;8.710;2023-11-21T18:08:20;6.50;;;4.50;;
40953;SDS011;26686;50.130;8.710;2023-11-21T18:13:22;5.63;;;4.68;;
40953;SDS011;26686;50.130;8.710;2023-11-21T18:18:26;5.15;;;3.90;;
40953;SDS011;26686;50.130;8.710;2023-11-21T18:23:28;4.93;;;3.63;;
40953;SDS011;26686;50.130;8.710;2023-11-21T18:28:29;2.55;;;2.35;;
40953;SDS011;26686;50.130;8.710;2023-11-21T18:33:31;3.65;;;2.60;;
40953;SDS011;26686;50.130;8.710;2023-11-21T18:38:33;2.90;;;2.60;;
40953;SDS011;26686;50.130;8.710;2023-11-21T18:43:35;2.30;;;2.10;;
40953;SDS011;26686;50.130;8.710;2023-11-21T18:48:38;3.40;;;2.67;;
40953;SDS011;26686;50.130;8.710;2023-11-21T18:53:40;3.60;;;2.33;;
40953;SDS011;26686;50.130;8.710;2023-11-21T18:58:41;3.38;;;2.70;;
40953;SDS011;26686;50.130;8.710;2023-11-21T19:03:43;3.97;;;3.55;;
40953;SDS011;26686;50.130;8.710;2023-11-21T19:08:45;3.78;;;3.42;;
40953;SDS011;26686;50.130;8.710;2023-11-21T19:13:47;6.25;;;4.78;;
40953;SDS011;26686;50.130;8.710;2023-11-21T19:18:49;7.80;;;3.80;;
40953;SDS011;26686;50.130;8.710;2023-11-21T19:24:00;5.07;;;4.28;;
40953;SDS011;26686;50.130;8.710;2023-11-21T19:29:05;5.13;;;4.53;;
40953;SDS011;26686;50.130;8.710;2023-11-21T19:34:10;4.68;;;3.97;;
40953;SDS011;26686;50.130;8.710;2023-11-21T19:39:13;5.60;;;4.90;;
40953;SDS011;26686;50.130;8.710;2023-11-21T19:44:16;5.65;;;4.55;;
40953;SDS011;26686;50.130;8.710;2023-11-21T19:49:18;4.88;;;4.38;;
40953;SDS011;26686;50.130;8.710;2023-11-21T19:54:21;10.20;;;7.32;;
40953;SDS011;26686;50.130;8.710;2023-11-21T19:59:22;5.68;;;4.60;;
40953;SDS011;26686;50.130;8.710;2023-11-21T20:04:27;6.05;;;4.80;;
40953;SDS011;26686;50.130;8.710;2023-11-21T20:09:28;5.47;;;4.90;;
40953;SDS011;26686;50.130;8.710;2023-11-21T20:14:30;6.60;;;5.05;;
40953;SDS011;26686;50.130;8.710;2023-11-21T20:19:32;8.98;;;6.22;;
40953;SDS011;26686;50.130;8.710;2023-11-21T20:24:34;6.47;;;5.25;;
40953;SDS011;26686;50.130;8.710;2023-11-21T20:29:36;5.72;;;5.13;;
40953;SDS011;26686;50.130;8.710;2023-11-21T20:34:41;5.70;;;4.85;;
40953;SDS011;26686;50.130;8.710;2023-11-21T20:39:45;6.30;;;4.37;;
40953;SDS011;26686;50.130;8.710;2023-11-21T20:44:50;5.68;;;4.93;;
40953;SDS011;26686;50.130;8.710;2023-11-21T20:49:53;8.73;;;7.10;;
40953;SDS011;26686;50.130;8.710;2023-11-21T20:55:01;6.07;;;4.70;;
40953;SDS011;26686;50.130;8.710;2023-11-21T21:00:02;5.75;;;4.32;;
40953;SDS011;26686;50.130;8.710;2023-11-21T21:05:12;5.72;;;5.10;;
40953;SDS011;26686;50.130;8.710;2023-11-21T21:10:16;6.30;;;4.67;;
40953;SDS011;26686;50.130;8.710;2023-11-21T21:15:18;5.78;;;4.85;;
40953;SDS011;26686;50.130;8.710;2023-11-21T21:20:19;5.30;;;4.68;;
40953;SDS011;26686;50.130;8.710;2023-11-21T21:25:24;5.78;;;4.82;;
40953;SDS011;26686;50.130;8.710;2023-11-21T21:30:25;7.28;;;5.00;;
40953;SDS011;26686;50.130;8.710;2023-11-21T21:35:29;5.77;;;4.97;;
40953;SDS011;26686;50.130;8.710;2023-11-21T21:40:30;7.63;;;4.90;;
40953;SDS011;26686;50.130;8.710;2023-11-21T21:45:33;4.80;;;4.20;;
40953;SDS011;26686;50.130;8.710;2023-11-21T21:50:36;4.32;;;3.72;;
40953;SDS011;26686;50.130;8.710;2023-11-21T21:55:41;4.78;;;3.80;;
40953;SDS011;26686;50.130;8.710;2023-11-21T22:00:43;4.93;;;3.85;;
40953;SDS011;26686;50.130;8.710;2023-11-21T22:05:54;3.40;;;2.70;;
40953;SDS011;26686;50.130;8.710;2023-11-21T22:10:58;2.65;;;2.22;;
40953;SDS011;26686;50.130;8.710;2023-11-21T22:16:01;2.55;;;2.35;;
40953;SDS011;26686;50.130;8.710;2023-11-21T22:21:03;1.98;;;1.75;;
40953;SDS011;26686;50.130;8.710;2023-11-21T22:26:07;3.10;;;2.22;;
40953;SDS011;26686;50.130;8.710;2023-11-21T22:31:09;2.25;;;1.75;;
40953;SDS011;26686;50.130;8.710;2023-11-21T22:36:13;2.03;;;1.77;;
40953;SDS011;26686;50.130;8.710;2023-11-21T22:41:25;2.28;;;1.48;;
40953;SDS011;26686;50.130;8.710;2023-11-21T22:46:27;1.55;;;1.25;;
40953;SDS011;26686;50.130;8.710;2023-11-21T22:51:31;2.13;;;1.92;;
40953;SDS011;26686;50.130;8.710;2023-11-21T22:56:32;3.67;;;1.92;;
40953;SDS011;26686;50.130;8.710;2023-11-21T23:01:34;2.42;;;1.98;;
40953;SDS011;26686;50.130;8.710;2023-11-21T23:06:36;2.22;;;1.50;;
40953;SDS011;26686;50.130;8.710;2023-11-21T23:11:37;2.83;;;2.03;;
40953;SDS011;26686;50.130;8.710;2023-11-21T23:16:39;2.65;;;1.40;;
40953;SDS011;26686;50.130;8.710;2023-11-21T23:21:41;2.00;;;1.80;;
40953;SDS011;26686;50.130;8.710;2023-11-21T23:26:42;2.08;;;1.58;;
40953;SDS011;26686;50.130;8.710;2023-11-21T23:31:44;2.72;;;1.45;;
40953;SDS011;26686;50.130;8.710;2023-11-21T23:36:46;1.95;;;1.75;;
40953;SDS011;26686;50.130;8.710;2023-11-21T23:41:51;1.65;;;1.42;;
40953;SDS011;26686;50.130;8.710;2023-11-21T23:46:52;2.30;;;1.63;;
40953;SDS011;26686;50.130;8.710;2023-11-21T23:51:54;2.42;;;1.42;;
40953;SDS011;26686;50.130;8.710;2023-11-21T23:56:56;2.40;;;2.20;;
